Time;durP1;ratioP1;P1;durP2;ratioP2;P2;SDS_P1;SDS_P2;PMS_P1;PMS_P2;Temp;Humidity;BMP_temperature;BMP_pressure;BME280_temperature;BME280_humidity;BME280_pressure;Samples;Min_cycle;Max_cycle;Signal;HPM_P1;HPM_P2
2021/07/29 07:55:04;;;;;;;6.80;2.65;;;23.80;74.20;;;;;;5069614;27;20395;-88
2021/07/29 07:57:29;;;;;;;4.22;2.50;;;23.80;72.40;;;;;;5028536;28;20068;-88
2021/07/29 07:59:58;;;;;;;7.80;2.83;;;23.80;72.40;;;;;;5024490;28;20038;-88
2021/07/29 08:02:24;;;;;;;9.45;2.60;;;23.80;72.40;;;;;;5008333;28;20048;-87
2021/07/29 08:04:50;;;;;;;11.32;2.70;;;23.90;72.60;;;;;;5008504;28;20075;-88
2021/07/29 08:07:15;;;;;;;11.15;3.20;;;23.90;72.50;;;;;;5006568;28;20744;-89
2021/07/29 08:09:41;;;;;;;13.75;3.50;;;23.90;72.50;;;;;;5009840;28;20036;-89
2021/07/29 08:12:07;;;;;;;9.15;3.38;;;23.90;72.50;;;;;;5025286;28;20017;-88
2021/07/29 08:14:34;;;;;;;11.55;4.03;;;23.80;72.30;;;;;;5010265;28;20073;-89
2021/07/29 08:17:01;;;;;;;9.23;3.92;;;23.90;72.70;;;;;;5009870;28;20075;-89
2021/07/29 08:19:27;;;;;;;10.35;3.47;;;23.90;72.50;;;;;;5001656;28;20069;-86
2021/07/29 08:21:52;;;;;;;8.68;3.35;;;23.90;72.40;;;;;;5008880;28;20115;-86
2021/07/29 08:24:18;;;;;;;6.82;3.50;;;23.90;72.30;;;;;;5009693;28;20037;-86
2021/07/29 08:26:44;;;;;;;9.70;3.50;;;23.90;72.20;;;;;;5009491;28;20132;-87
2021/07/29 08:29:10;;;;;;;8.07;3.45;;;23.90;71.80;;;;;;5025839;28;20037;-88
2021/07/29 08:31:35;;;;;;;6.88;3.88;;;23.90;71.90;;;;;;5010292;28;20036;-89
2021/07/29 08:34:01;;;;;;;5.22;2.70;;;23.90;71.50;;;;;;4997899;28;20040;-88
2021/07/29 08:36:27;;;;;;;6.63;3.22;;;24.00;71.50;;;;;;5014423;28;20063;-88
2021/07/29 08:38:52;;;;;;;6.68;3.20;;;24.00;71.20;;;;;;5020972;28;20057;-89
2021/07/29 08:41:21;;;;;;;6.38;2.88;;;24.00;71.20;;;;;;5020388;28;20082;-88
2021/07/29 08:43:47;;;;;;;7.05;3.22;;;24.00;71.00;;;;;;5015551;28;20270;-88
2021/07/29 08:46:18;;;;;;;4.25;2.40;;;24.00;70.80;;;;;;5014132;28;20057;-88
2021/07/29 08:48:48;;;;;;;5.40;3.10;;;24.00;70.90;;;;;;5014468;28;20537;-88
2021/07/29 08:51:19;;;;;;;6.50;2.53;;;24.00;70.70;;;;;;5013953;28;20038;-88
2021/07/29 08:53:47;;;;;;;3.83;2.50;;;24.00;70.80;;;;;;5022781;28;20029;-89
2021/07/29 08:56:14;;;;;;;4.85;2.50;;;24.00;70.70;;;;;;5020838;28;20029;-88
2021/07/29 08:58:40;;;;;;;5.63;2.75;;;24.00;70.60;;;;;;5016823;28;20029;-89
2021/07/29 09:01:09;;;;;;;5.85;2.65;;;24.00;70.50;;;;;;5024710;28;20533;-88
2021/07/29 09:03:35;;;;;;;5.93;3.20;;;24.00;70.40;;;;;;5024621;28;20275;-89
2021/07/29 09:06:08;;;;;;;5.47;2.67;;;24.10;70.40;;;;;;5013552;28;20359;-88
2021/07/29 09:08:53;;;;;;;5.70;2.80;;;24.00;70.20;;;;;;5001805;23;20091;-85
2021/07/29 09:11:37;;;;;;;7.97;3.00;;;24.00;70.20;;;;;;4974765;28;20072;-85
2021/07/29 09:14:21;;;;;;;4.95;3.10;;;24.00;69.90;;;;;;4989736;28;20038;-86
2021/07/29 09:17:03;;;;;;;3.83;2.30;;;24.00;69.60;;;;;;4975634;28;20030;-85
2021/07/29 09:19:48;;;;;;;3.35;2.38;;;24.00;69.90;;;;;;4989809;28;20030;-85
2021/07/29 09:22:24;;;;;;;4.18;2.45;;;24.00;70.00;;;;;;4988893;28;20027;-86
2021/07/29 09:24:57;;;;;;;4.03;2.60;;;24.00;70.00;;;;;;4989728;28;20030;-86
2021/07/29 09:27:23;;;;;;;4.95;2.60;;;24.00;70.00;;;;;;4992020;28;20483;-86
2021/07/29 09:29:49;;;;;;;4.78;2.60;;;24.00;69.80;;;;;;4989938;28;20042;-86
2021/07/29 09:32:16;;;;;;;4.50;2.30;;;24.00;69.70;;;;;;4985912;28;20395;-85
2021/07/29 09:34:43;;;;;;;8.93;2.60;;;24.00;69.20;;;;;;4972397;28;20041;-84
2021/07/29 09:37:16;;;;;;;14.25;2.67;;;24.10;69.40;;;;;;4987040;28;20027;-86
2021/07/29 09:39:42;;;;;;;15.50;2.83;;;24.10;69.70;;;;;;4975627;28;20022;-86
2021/07/29 09:42:21;;;;;;;10.88;3.28;;;24.10;69.40;;;;;;4988474;28;20049;-86
2021/07/29 09:44:51;;;;;;;6.00;2.55;;;24.10;69.70;;;;;;4987506;28;20026;-86
2021/07/29 09:47:18;;;;;;;4.72;2.63;;;24.10;69.90;;;;;;4988285;28;20031;-86
2021/07/29 09:49:44;;;;;;;6.03;2.30;;;24.10;70.00;;;;;;4988971;28;20041;-87
2021/07/29 09:52:10;;;;;;;7.75;2.30;;;24.10;69.50;;;;;;4988859;28;20030;-85
2021/07/29 09:54:44;;;;;;;6.25;2.45;;;24.10;69.10;;;;;;4988694;28;20053;-85
2021/07/29 09:57:10;;;;;;;5.88;2.67;;;24.10;68.80;;;;;;4988398;28;20026;-86
2021/07/29 09:59:36;;;;;;;5.78;2.13;;;24.10;68.50;;;;;;4985381;28;20033;-85
2021/07/29 10:02:03;;;;;;;3.65;2.20;;;24.10;68.20;;;;;;4969266;28;20030;-86
2021/07/29 10:04:44;;;;;;;2.90;2.10;;;24.10;68.10;;;;;;4972049;28;20034;-86
2021/07/29 10:07:24;;;;;;;5.22;2.10;;;24.10;67.80;;;;;;4988225;28;20037;-85
2021/07/29 10:09:50;;;;;;;5.88;2.42;;;24.10;67.80;;;;;;4988330;28;20034;-85
2021/07/29 10:12:27;;;;;;;5.93;2.45;;;24.10;67.50;;;;;;4982043;28;20577;-86
2021/07/29 10:14:56;;;;;;;3.83;1.83;;;24.10;67.30;;;;;;4981585;28;20045;-85
2021/07/29 10:17:46;;;;;;;4.40;2.17;;;24.10;67.30;;;;;;4969089;28;20053;-85
2021/07/29 10:20:20;;;;;;;4.15;2.05;;;24.10;67.20;;;;;;4976341;28;20511;-86
2021/07/29 10:22:50;;;;;;;5.55;2.45;;;24.20;67.40;;;;;;4984362;28;20030;-86
2021/07/29 10:25:16;;;;;;;4.03;2.30;;;24.20;67.50;;;;;;5004069;28;20061;-87
2021/07/29 10:28:20;;;;;;;4.22;2.15;;;24.10;67.30;;;;;;5003605;28;20094;-85
2021/07/29 10:31:05;;;;;;;5.65;2.03;;;24.20;67.00;;;;;;4979286;28;20031;-84
2021/07/29 10:33:31;;;;;;;5.57;2.50;;;24.40;65.60;;;;;;4975229;28;20030;-89
2021/07/29 10:36:00;;;;;;;4.53;2.10;;;24.40;66.00;;;;;;4990476;28;20105;-89
2021/07/29 10:38:47;;;;;;;7.53;2.80;;;24.60;66.00;;;;;;4970323;28;20026;-89
2021/07/29 10:41:22;;;;;;;4.32;2.38;;;24.70;65.70;;;;;;4991934;28;20085;-89
2021/07/29 10:43:48;;;;;;;3.95;2.88;;;24.80;65.40;;;;;;5004524;28;20034;-86
2021/07/29 10:46:14;;;;;;;6.18;3.47;;;25.00;65.10;;;;;;4988075;28;20584;-88
2021/07/29 10:48:40;;;;;;;5.05;2.88;;;25.00;64.70;;;;;;4987258;28;20038;-88
2021/07/29 10:51:13;;;;;;;4.32;2.90;;;25.10;65.20;;;;;;4999078;28;20026;-86
2021/07/29 10:53:45;;;;;;;4.72;2.92;;;25.10;64.40;;;;;;4970949;28;20487;-88
2021/07/29 10:56:12;;;;;;;3.45;2.80;;;25.20;64.40;;;;;;4986251;28;20030;-87
2021/07/29 10:58:45;;;;;;;4.97;3.15;;;25.20;64.40;;;;;;4987781;28;20094;-87
2021/07/29 11:01:11;;;;;;;5.57;3.03;;;25.20;64.40;;;;;;4987038;28;20088;-87
2021/07/29 11:03:45;;;;;;;4.72;3.45;;;25.20;64.40;;;;;;4968494;28;20026;-87
2021/07/29 11:06:13;;;;;;;9.23;3.38;;;25.20;64.40;;;;;;4980098;28;20022;-87
2021/07/29 11:08:41;;;;;;;3.92;3.13;;;25.20;64.50;;;;;;5006434;28;20042;-87
2021/07/29 11:11:07;;;;;;;5.97;3.60;;;25.20;64.60;;;;;;4989384;28;20030;-86
2021/07/29 11:13:35;;;;;;;4.82;3.20;;;25.20;64.80;;;;;;5004567;28;20041;-87
2021/07/29 11:16:01;;;;;;;4.45;3.00;;;25.20;65.00;;;;;;5007043;28;20049;-85
2021/07/29 11:18:27;;;;;;;139.65;37.58;;;25.20;65.00;;;;;;5003980;28;20029;-85
2021/07/29 11:20:53;;;;;;;106.68;32.00;;;25.10;65.10;;;;;;4990701;28;20037;-85
2021/07/29 11:23:43;;;;;;;49.85;14.45;;;25.10;65.40;;;;;;4981389;28;20495;-87
2021/07/29 11:26:11;;;;;;;34.58;11.30;;;25.00;65.50;;;;;;4958545;28;20038;-87
2021/07/29 11:28:37;;;;;;;38.13;12.32;;;25.00;65.70;;;;;;4970085;28;20030;-87
2021/07/29 11:31:02;;;;;;;42.55;14.27;;;25.00;66.00;;;;;;4990031;28;20034;-86
2021/07/29 11:33:29;;;;;;;47.78;15.25;;;24.90;66.20;;;;;;4970665;28;20493;-87
2021/07/29 11:35:56;;;;;;;54.47;18.58;;;24.80;66.40;;;;;;4970821;28;20050;-87
2021/07/29 11:38:23;;;;;;;52.45;17.05;;;24.80;66.60;;;;;;4970560;28;20030;-86
2021/07/29 11:40:57;;;;;;;51.10;17.80;;;24.80;66.80;;;;;;4987203;28;20033;-87
2021/07/29 11:43:28;;;;;;;55.75;19.90;;;24.80;67.00;;;;;;4986907;28;20423;-89
2021/07/29 11:46:05;;;;;;;55.20;18.60;;;24.70;67.10;;;;;;4987235;28;20130;-87
2021/07/29 11:48:31;;;;;;;57.17;17.55;;;24.70;67.20;;;;;;4988009;28;20038;-87
2021/07/29 11:50:59;;;;;;;50.22;18.60;;;24.70;67.40;;;;;;4988025;28;20088;-88
2021/07/29 11:53:41;;;;;;;58.25;19.10;;;24.70;67.40;;;;;;4986977;28;20049;-87
2021/07/29 11:56:10;;;;;;;52.15;17.30;;;24.70;67.40;;;;;;4984055;28;20023;-87
2021/07/29 11:58:37;;;;;;;49.47;16.25;;;24.70;67.50;;;;;;4966884;28;20039;-86
2021/07/29 12:01:12;;;;;;;60.55;18.65;;;24.70;67.60;;;;;;4967687;28;20023;-87
2021/07/29 12:03:44;;;;;;;51.95;17.77;;;24.70;67.70;;;;;;4967857;28;20126;-88
2021/07/29 12:06:14;;;;;;;49.88;17.55;;;24.60;67.70;;;;;;4967741;28;20039;-87
2021/07/29 12:08:42;;;;;;;41.15;15.75;;;24.60;67.80;;;;;;4986484;28;20045;-92
2021/07/29 12:11:09;;;;;;;44.00;16.10;;;24.60;67.80;;;;;;4989241;28;20034;-91
2021/07/29 12:13:41;;;;;;;45.45;16.73;;;24.60;67.90;;;;;;4988243;28;20498;-90
2021/07/29 12:16:10;;;;;;;42.72;14.77;;;24.60;68.00;;;;;;4989971;28;20022;-89
2021/07/29 12:18:35;;;;;;;43.47;15.40;;;24.70;68.10;;;;;;4987767;28;20407;-87
2021/07/29 12:21:01;;;;;;;42.20;15.07;;;24.70;68.20;;;;;;4987604;28;20035;-88
2021/07/29 12:23:30;;;;;;;42.17;16.13;;;24.60;68.20;;;;;;4987147;28;20034;-88
2021/07/29 12:25:58;;;;;;;42.42;15.60;;;24.60;68.10;;;;;;4986948;28;20030;-89
2021/07/29 12:28:43;;;;;;;50.88;15.30;;;24.70;68.10;;;;;;4991268;28;20026;-90
2021/07/29 12:31:21;;;;;;;48.22;13.48;;;24.60;68.40;;;;;;4987059;28;20101;-88
2021/07/29 12:33:51;;;;;;;47.47;14.55;;;24.60;68.60;;;;;;4983929;28;20097;-88
2021/07/29 12:36:18;;;;;;;43.70;14.13;;;24.60;68.60;;;;;;4953218;28;20051;-89
2021/07/29 12:38:55;;;;;;;41.83;14.10;;;24.60;68.70;;;;;;4951726;28;20031;-88
2021/07/29 12:41:28;;;;;;;34.63;13.07;;;24.60;68.70;;;;;;4954728;28;20647;-88
2021/07/29 12:44:17;;;;;;;35.40;13.38;;;24.60;68.70;;;;;;4955787;28;20488;-88
2021/07/29 12:46:51;;;;;;;35.97;13.23;;;24.60;68.60;;;;;;4955188;28;20042;-87
2021/07/29 12:49:21;;;;;;;34.67;13.63;;;24.60;68.80;;;;;;4972952;28;20030;-88
2021/07/29 12:51:51;;;;;;;35.20;13.00;;;24.60;68.90;;;;;;4957966;28;20026;-88
2021/07/29 12:54:20;;;;;;;36.63;13.67;;;24.60;69.00;;;;;;4957648;28;20037;-88
2021/07/29 12:57:02;;;;;;;34.33;12.70;;;24.60;68.80;;;;;;4958860;28;20015;-89
2021/07/29 12:59:28;;;;;;;31.20;11.57;;;24.60;68.90;;;;;;4973841;28;20031;-89
2021/07/29 13:01:53;;;;;;;38.25;13.07;;;24.60;68.90;;;;;;4957854;28;20096;-89
2021/07/29 13:04:25;;;;;;;33.00;13.13;;;24.60;68.90;;;;;;4955684;28;20441;-89
2021/07/29 13:06:51;;;;;;;33.28;12.40;;;24.60;68.90;;;;;;4955362;28;20038;-88
2021/07/29 13:09:17;;;;;;;32.10;13.30;;;24.60;68.90;;;;;;4955246;28;20395;-89
2021/07/29 13:11:42;;;;;;;28.33;11.90;;;24.60;68.90;;;;;;4956398;28;20031;-88
2021/07/29 13:14:08;;;;;;;35.97;12.63;;;24.60;69.00;;;;;;4962734;28;20595;-90
2021/07/29 13:16:34;;;;;;;33.50;12.23;;;24.60;69.10;;;;;;4990027;28;20030;-89
2021/07/29 13:19:00;;;;;;;30.15;11.55;;;24.60;69.10;;;;;;4989851;28;20015;-88
2021/07/29 13:21:25;;;;;;;29.35;12.05;;;24.70;69.20;;;;;;4960130;28;20106;-88
2021/07/29 13:23:51;;;;;;;31.30;12.25;;;24.60;69.20;;;;;;4987440;28;20038;-89
2021/07/29 13:26:17;;;;;;;28.17;11.13;;;24.60;69.30;;;;;;4992332;28;20049;-89
2021/07/29 13:28:42;;;;;;;31.13;11.80;;;24.60;69.40;;;;;;4992166;28;20026;-88
2021/07/29 13:31:08;;;;;;;27.38;11.27;;;24.60;69.40;;;;;;4991422;28;20031;-89
2021/07/29 13:33:37;;;;;;;32.08;12.73;;;24.60;69.50;;;;;;4991198;28;20121;-89
2021/07/29 13:36:03;;;;;;;25.63;11.98;;;24.60;69.50;;;;;;4992193;28;20075;-89
2021/07/29 13:38:28;;;;;;;29.48;11.73;;;24.60;69.60;;;;;;4990685;28;20034;-89
2021/07/29 13:40:54;;;;;;;25.88;10.73;;;24.70;69.70;;;;;;4967507;28;20033;-89
2021/07/29 13:43:20;;;;;;;25.15;11.43;;;24.70;69.70;;;;;;4954757;28;20035;-88
2021/07/29 13:45:46;;;;;;;26.85;11.77;;;24.70;70.20;;;;;;4954592;28;20046;-89
2021/07/29 13:48:14;;;;;;;29.23;11.95;;;24.70;69.50;;;;;;4960407;28;20041;-88
2021/07/29 13:50:41;;;;;;;24.90;10.95;;;24.70;69.60;;;;;;4990281;28;20636;-88
2021/07/29 13:53:07;;;;;;;30.33;11.02;;;24.70;69.50;;;;;;4970406;28;20034;-88
2021/07/29 13:55:32;;;;;;;21.42;10.57;;;24.70;69.50;;;;;;4986865;28;20061;-88
2021/07/29 13:57:59;;;;;;;25.70;10.63;;;24.80;69.50;;;;;;4988982;28;20061;-88
2021/07/29 14:00:28;;;;;;;25.15;10.55;;;24.80;69.50;;;;;;4971271;28;20510;-89
2021/07/29 14:02:53;;;;;;;23.67;9.88;;;24.80;69.40;;;;;;4957262;28;20026;-88
